sensor_id;sensor_type;location;lat;lon;timestamp;pressure;altitude;pressure_sealevel;temperature;humidity
62248;BME280;48237;50.140;8.486;2023-04-06T00:02:16;99909.76;;;3.18;54.82
62248;BME280;48237;50.140;8.486;2023-04-06T00:04:44;99915.72;;;2.22;57.66
62248;BME280;48237;50.140;8.486;2023-04-06T00:07:11;99913.64;;;2.34;53.21
62248;BME280;48237;50.140;8.486;2023-04-06T00:09:38;99907.36;;;2.12;53.04
62248;BME280;48237;50.140;8.486;2023-04-06T00:12:06;99905.56;;;2.44;51.04
62248;BME280;48237;50.140;8.486;2023-04-06T00:14:33;99903.38;;;2.54;51.68
62248;BME280;48237;50.140;8.486;2023-04-06T00:17:00;99899.74;;;2.77;51.48
62248;BME280;48237;50.140;8.486;2023-04-06T00:19:27;99895.51;;;2.78;53.09
62248;BME280;48237;50.140;8.486;2023-04-06T00:21:54;99892.55;;;3.16;54.91
62248;BME280;48237;50.140;8.486;2023-04-06T00:24:22;99893.38;;;2.64;52.42
62248;BME280;48237;50.140;8.486;2023-04-06T00:26:49;99896.40;;;2.19;54.16
62248;BME280;48237;50.140;8.486;2023-04-06T00:29:15;99895.62;;;2.22;54.00
62248;BME280;48237;50.140;8.486;2023-04-06T00:31:48;99889.54;;;2.43;53.88
62248;BME280;48237;50.140;8.486;2023-04-06T00:34:15;99881.90;;;2.66;55.27
62248;BME280;48237;50.140;8.486;2023-04-06T00:36:43;99879.53;;;2.55;54.67
62248;BME280;48237;50.140;8.486;2023-04-06T00:39:10;99873.80;;;3.02;54.55
62248;BME280;48237;50.140;8.486;2023-04-06T00:41:36;99869.02;;;3.32;53.64
62248;BME280;48237;50.140;8.486;2023-04-06T00:44:04;99865.96;;;3.42;52.32
62248;BME280;48237;50.140;8.486;2023-04-06T00:46:31;99862.52;;;3.68;51.05
62248;BME280;48237;50.140;8.486;2023-04-06T00:48:58;99857.85;;;3.05;52.23
62248;BME280;48237;50.140;8.486;2023-04-06T00:51:25;99858.91;;;2.69;51.62
62248;BME280;48237;50.140;8.486;2023-04-06T00:53:53;99856.65;;;2.93;52.61
62248;BME280;48237;50.140;8.486;2023-04-06T00:56:20;99851.39;;;3.11;51.36
62248;BME280;48237;50.140;8.486;2023-04-06T00:58:47;99852.45;;;2.40;52.12
62248;BME280;48237;50.140;8.486;2023-04-06T01:01:14;99850.19;;;2.51;55.71
62248;BME280;48237;50.140;8.486;2023-04-06T01:03:41;99849.40;;;2.22;52.86
62248;BME280;48237;50.140;8.486;2023-04-06T02:37:44;99822.54;;;3.08;52.61
62248;BME280;48237;50.140;8.486;2023-04-06T02:40:11;99820.48;;;0.73;53.63
62248;BME280;48237;50.140;8.486;2023-04-06T02:42:37;99815.82;;;1.84;48.94
62248;BME280;48237;50.140;8.486;2023-04-06T02:45:03;99814.53;;;2.40;48.67
62248;BME280;48237;50.140;8.486;2023-04-06T02:47:30;99813.26;;;2.30;49.94
62248;BME280;48237;50.140;8.486;2023-04-06T02:49:56;99812.64;;;2.36;50.25
62248;BME280;48237;50.140;8.486;2023-04-06T02:52:21;99810.76;;;1.92;49.55
62248;BME280;48237;50.140;8.486;2023-04-06T02:54:48;99811.59;;;2.53;47.98
62248;BME280;48237;50.140;8.486;2023-04-06T02:57:14;99812.20;;;2.85;46.32
62248;BME280;48237;50.140;8.486;2023-04-06T02:59:40;99813.48;;;2.72;47.64
62248;BME280;48237;50.140;8.486;2023-04-06T03:02:06;99816.20;;;2.33;48.30
62248;BME280;48237;50.140;8.486;2023-04-06T03:04:32;99818.64;;;3.01;48.12
62248;BME280;48237;50.140;8.486;2023-04-06T03:06:59;99821.36;;;3.81;47.19
62248;BME280;48237;50.140;8.486;2023-04-06T03:09:26;99821.09;;;2.72;51.31
62248;BME280;48237;50.140;8.486;2023-04-06T03:11:53;99817.05;;;2.55;50.48
62248;BME280;48237;50.140;8.486;2023-04-06T03:14:20;99818.93;;;2.39;51.32
62248;BME280;48237;50.140;8.486;2023-04-06T03:16:47;99821.72;;;1.92;52.50
62248;BME280;48237;50.140;8.486;2023-04-06T03:19:14;99819.10;;;2.21;53.13
62248;BME280;48237;50.140;8.486;2023-04-06T03:21:42;99822.59;;;2.01;54.52
62248;BME280;48237;50.140;8.486;2023-04-06T03:24:08;99822.20;;;1.73;52.72
62248;BME280;48237;50.140;8.486;2023-04-06T03:26:36;99819.36;;;2.05;53.38
62248;BME280;48237;50.140;8.486;2023-04-06T03:29:02;99820.44;;;1.95;53.38
62248;BME280;48237;50.140;8.486;2023-04-06T03:31:29;99821.46;;;1.19;57.02
62248;BME280;48237;50.140;8.486;2023-04-06T03:33:56;99823.03;;;1.69;55.94
62248;BME280;48237;50.140;8.486;2023-04-06T03:36:23;99825.19;;;1.31;56.01
62248;BME280;48237;50.140;8.486;2023-04-06T03:38:50;99822.45;;;2.17;55.10
62248;BME280;48237;50.140;8.486;2023-04-06T03:41:17;99825.48;;;2.01;53.94
62248;BME280;48237;50.140;8.486;2023-04-06T03:43:44;99825.38;;;1.43;55.94
62248;BME280;48237;50.140;8.486;2023-04-06T03:46:12;99825.68;;;1.50;56.29
62248;BME280;48237;50.140;8.486;2023-04-06T03:48:39;99831.12;;;1.13;55.88
62248;BME280;48237;50.140;8.486;2023-04-06T03:51:06;99827.14;;;1.63;55.33
62248;BME280;48237;50.140;8.486;2023-04-06T03:53:34;99830.21;;;1.62;54.29
62248;BME280;48237;50.140;8.486;2023-04-06T03:56:01;99825.40;;;1.86;51.96
62248;BME280;48237;50.140;8.486;2023-04-06T03:58:28;99827.81;;;1.52;56.15
62248;BME280;48237;50.140;8.486;2023-04-06T04:00:55;99827.54;;;1.34;56.17
62248;BME280;48237;50.140;8.486;2023-04-06T04:03:22;99830.74;;;1.96;54.18
62248;BME280;48237;50.140;8.486;2023-04-06T04:05:49;99833.50;;;1.57;55.98
62248;BME280;48237;50.140;8.486;2023-04-06T04:08:16;99835.43;;;0.87;57.87
62248;BME280;48237;50.140;8.486;2023-04-06T04:10:43;99835.51;;;1.78;54.86
62248;BME280;48237;50.140;8.486;2023-04-06T04:13:10;99834.23;;;1.37;56.70
62248;BME280;48237;50.140;8.486;2023-04-06T04:15:38;99837.42;;;1.99;54.65
62248;BME280;48237;50.140;8.486;2023-04-06T04:18:04;99839.67;;;1.63;55.29
62248;BME280;48237;50.140;8.486;2023-04-06T04:20:32;99846.01;;;0.91;57.95
62248;BME280;48237;50.140;8.486;2023-04-06T04:22:59;99845.33;;;0.40;57.22
62248;BME280;48237;50.140;8.486;2023-04-06T04:25:26;99845.29;;;1.44;54.93
62248;BME280;48237;50.140;8.486;2023-04-06T04:27:53;99844.21;;;1.19;56.30
62248;BME280;48237;50.140;8.486;2023-04-06T04:30:21;99844.26;;;1.57;52.88
62248;BME280;48237;50.140;8.486;2023-04-06T04:32:48;99845.01;;;1.48;55.29
62248;BME280;48237;50.140;8.486;2023-04-06T04:35:15;99845.98;;;1.25;53.46
62248;BME280;48237;50.140;8.486;2023-04-06T04:37:42;99844.80;;;0.86;55.70
62248;BME280;48237;50.140;8.486;2023-04-06T04:40:10;99845.25;;;0.84;56.98
62248;BME280;48237;50.140;8.486;2023-04-06T04:42:38;99841.17;;;1.70;54.20
62248;BME280;48237;50.140;8.486;2023-04-06T04:45:06;99842.85;;;1.59;54.84
62248;BME280;48237;50.140;8.486;2023-04-06T04:47:33;99845.94;;;1.85;53.39
62248;BME280;48237;50.140;8.486;2023-04-06T04:50:00;99850.88;;;0.76;56.97
62248;BME280;48237;50.140;8.486;2023-04-06T04:52:27;99850.34;;;1.33;57.89
62248;BME280;48237;50.140;8.486;2023-04-06T04:54:53;99852.01;;;1.27;55.01
62248;BME280;48237;50.140;8.486;2023-04-06T04:57:21;99851.17;;;1.29;55.70
62248;BME280;48237;50.140;8.486;2023-04-06T04:59:47;99851.51;;;0.58;57.20
62248;BME280;48237;50.140;8.486;2023-04-06T05:02:15;99854.07;;;1.15;55.98
62248;BME280;48237;50.140;8.486;2023-04-06T05:04:41;99854.67;;;2.04;54.44
62248;BME280;48237;50.140;8.486;2023-04-06T05:07:09;99858.30;;;1.25;57.50
62248;BME280;48237;50.140;8.486;2023-04-06T05:09:36;99854.74;;;1.68;53.70
62248;BME280;48237;50.140;8.486;2023-04-06T05:12:03;99859.29;;;1.65;54.38
62248;BME280;48237;50.140;8.486;2023-04-06T05:14:30;99862.13;;;2.10;54.24
62248;BME280;48237;50.140;8.486;2023-04-06T05:16:58;99859.40;;;2.67;54.60
62248;BME280;48237;50.140;8.486;2023-04-06T05:19:25;99863.57;;;2.07;55.75
62248;BME280;48237;50.140;8.486;2023-04-06T05:21:53;99858.77;;;2.12;55.82
62248;BME280;48237;50.140;8.486;2023-04-06T05:24:20;99861.08;;;2.27;55.42
62248;BME280;48237;50.140;8.486;2023-04-06T05:26:47;99861.59;;;2.18;56.22
62248;BME280;48237;50.140;8.486;2023-04-06T05:29:15;99864.33;;;2.24;56.57
62248;BME280;48237;50.140;8.486;2023-04-06T05:31:42;99864.62;;;2.01;57.34
62248;BME280;48237;50.140;8.486;2023-04-06T05:34:09;99866.74;;;2.31;57.15
62248;BME280;48237;50.140;8.486;2023-04-06T05:36:37;99865.82;;;1.74;58.63
62248;BME280;48237;50.140;8.486;2023-04-06T05:39:04;99865.66;;;1.96;58.23
62248;BME280;48237;50.140;8.486;2023-04-06T05:41:31;99867.57;;;2.37;57.68
62248;BME280;48237;50.140;8.486;2023-04-06T05:43:58;99861.77;;;2.67;57.50
62248;BME280;48237;50.140;8.486;2023-04-06T05:46:26;99869.61;;;2.48;58.47
62248;BME280;48237;50.140;8.486;2023-04-06T05:48:53;99869.97;;;2.11;58.98
62248;BME280;48237;50.140;8.486;2023-04-06T05:51:20;99871.53;;;2.54;58.07
62248;BME280;48237;50.140;8.486;2023-04-06T05:53:48;99862.77;;;2.96;56.41
62248;BME280;48237;50.140;8.486;2023-04-06T05:56:15;99864.39;;;3.40;56.25
62248;BME280;48237;50.140;8.486;2023-04-06T05:58:42;99868.29;;;3.27;55.75
62248;BME280;48237;50.140;8.486;2023-04-06T06:01:09;99873.21;;;3.75;55.11
62248;BME280;48237;50.140;8.486;2023-04-06T06:03:36;99873.95;;;3.50;55.91
62248;BME280;48237;50.140;8.486;2023-04-06T06:06:04;99872.55;;;3.74;55.09
62248;BME280;48237;50.140;8.486;2023-04-06T06:08:31;99867.89;;;4.16;54.82
62248;BME280;48237;50.140;8.486;2023-04-06T06:10:58;99871.44;;;3.19;56.24
62248;BME280;48237;50.140;8.486;2023-04-06T06:13:25;99874.13;;;4.15;55.18
62248;BME280;48237;50.140;8.486;2023-04-06T06:15:52;99873.20;;;3.33;56.62
62248;BME280;48237;50.140;8.486;2023-04-06T06:18:19;99881.07;;;0.79;67.81
62248;BME280;48237;50.140;8.486;2023-04-06T06:20:46;99867.28;;;2.88;61.30
62248;BME280;48237;50.140;8.486;2023-04-06T06:23:13;99868.15;;;3.38;57.70
62248;BME280;48237;50.140;8.486;2023-04-06T06:25:40;99870.07;;;4.13;55.99
62248;BME280;48237;50.140;8.486;2023-04-06T06:28:07;99873.65;;;3.15;53.42
62248;BME280;48237;50.140;8.486;2023-04-06T06:30:35;99874.37;;;2.31;52.31
62248;BME280;48237;50.140;8.486;2023-04-06T06:33:02;99870.84;;;4.41;49.63
62248;BME280;48237;50.140;8.486;2023-04-06T06:35:29;99868.64;;;4.94;50.61
62248;BME280;48237;50.140;8.486;2023-04-06T06:37:56;99871.96;;;4.98;50.98
62248;BME280;48237;50.140;8.486;2023-04-06T06:40:23;99870.74;;;5.15;49.55
62248;BME280;48237;50.140;8.486;2023-04-06T06:42:51;99872.69;;;3.25;52.54
62248;BME280;48237;50.140;8.486;2023-04-06T06:45:18;99874.87;;;3.59;53.20
62248;BME280;48237;50.140;8.486;2023-04-06T06:47:45;99872.66;;;4.20;52.18
62248;BME280;48237;50.140;8.486;2023-04-06T06:50:12;99871.36;;;5.12;49.45
62248;BME280;48237;50.140;8.486;2023-04-06T06:52:40;99872.86;;;4.08;50.84
62248;BME280;48237;50.140;8.486;2023-04-06T06:55:09;99875.58;;;3.38;54.63
62248;BME280;48237;50.140;8.486;2023-04-06T06:57:37;99874.01;;;2.72;55.90
62248;BME280;48237;50.140;8.486;2023-04-06T07:00:05;99877.01;;;1.96;59.44
62248;BME280;48237;50.140;8.486;2023-04-06T07:02:34;99878.36;;;2.09;58.16
62248;BME280;48237;50.140;8.486;2023-04-06T07:05:01;99877.02;;;2.26;59.44
62248;BME280;48237;50.140;8.486;2023-04-06T07:07:28;99877.92;;;2.29;56.56
62248;BME280;48237;50.140;8.486;2023-04-06T07:09:55;99875.64;;;2.67;57.41
62248;BME280;48237;50.140;8.486;2023-04-06T07:12:23;99877.54;;;2.74;55.70
62248;BME280;48237;50.140;8.486;2023-04-06T07:14:50;99876.73;;;2.42;56.24
62248;BME280;48237;50.140;8.486;2023-04-06T07:17:17;99872.05;;;2.62;56.64
62248;BME280;48237;50.140;8.486;2023-04-06T07:19:44;99874.52;;;2.12;57.41
62248;BME280;48237;50.140;8.486;2023-04-06T07:22:11;99872.41;;;2.42;58.78
62248;BME280;48237;50.140;8.486;2023-04-06T07:24:39;99871.44;;;2.14;58.07
62248;BME280;48237;50.140;8.486;2023-04-06T07:27:06;99866.94;;;2.35;58.14
62248;BME280;48237;50.140;8.486;2023-04-06T07:29:33;99867.22;;;4.04;54.14
62248;BME280;48237;50.140;8.486;2023-04-06T07:32:01;99870.02;;;2.78;54.28
62248;BME280;48237;50.140;8.486;2023-04-06T07:34:28;99865.79;;;5.87;49.62
62248;BME280;48237;50.140;8.486;2023-04-06T07:36:55;99859.77;;;7.04;47.42
62248;BME280;48237;50.140;8.486;2023-04-06T07:39:22;99855.00;;;7.92;45.57
62248;BME280;48237;50.140;8.486;2023-04-06T07:41:49;99859.78;;;6.68;46.37
62248;BME280;48237;50.140;8.486;2023-04-06T07:44:17;99859.90;;;7.32;45.08
62248;BME280;48237;50.140;8.486;2023-04-06T07:46:43;99863.84;;;8.71;43.24
62248;BME280;48237;50.140;8.486;2023-04-06T07:49:10;99862.67;;;9.36;41.63
62248;BME280;48237;50.140;8.486;2023-04-06T07:51:38;99862.54;;;8.90;42.48
62248;BME280;48237;50.140;8.486;2023-04-06T07:54:05;99866.72;;;8.52;43.29
62248;BME280;48237;50.140;8.486;2023-04-06T07:56:32;99867.32;;;7.41;44.85
62248;BME280;48237;50.140;8.486;2023-04-06T07:59:00;99879.78;;;6.13;48.07
62248;BME280;48237;50.140;8.486;2023-04-06T08:01:27;99877.41;;;5.89;49.06
62248;BME280;48237;50.140;8.486;2023-04-06T08:03:55;99878.07;;;5.76;48.30
62248;BME280;48237;50.140;8.486;2023-04-06T08:06:22;99871.93;;;7.02;47.02
62248;BME280;48237;50.140;8.486;2023-04-06T08:08:49;99868.79;;;8.06;45.05
62248;BME280;48237;50.140;8.486;2023-04-06T08:11:16;99867.50;;;6.88;46.93
62248;BME280;48237;50.140;8.486;2023-04-06T08:13:44;99870.52;;;7.57;45.03
62248;BME280;48237;50.140;8.486;2023-04-06T08:16:11;99870.51;;;7.19;45.69
62248;BME280;48237;50.140;8.486;2023-04-06T08:18:38;99868.74;;;7.03;45.31
62248;BME280;48237;50.140;8.486;2023-04-06T08:21:05;99873.22;;;4.80;52.06
62248;BME280;48237;50.140;8.486;2023-04-06T08:23:32;99874.40;;;6.35;49.67
62248;BME280;48237;50.140;8.486;2023-04-06T08:25:59;99869.58;;;7.89;46.00
62248;BME280;48237;50.140;8.486;2023-04-06T08:28:27;99877.09;;;6.06;48.55
62248;BME280;48237;50.140;8.486;2023-04-06T08:30:54;99870.11;;;7.31;45.78
62248;BME280;48237;50.140;8.486;2023-04-06T08:33:21;99877.76;;;6.12;48.49
62248;BME280;48237;50.140;8.486;2023-04-06T08:35:48;99868.26;;;7.40;45.55
62248;BME280;48237;50.140;8.486;2023-04-06T08:38:15;99867.93;;;6.99;44.48
62248;BME280;48237;50.140;8.486;2023-04-06T08:40:42;99863.81;;;8.07;41.40
62248;BME280;48237;50.140;8.486;2023-04-06T08:43:12;99862.21;;;8.67;41.01
62248;BME280;48237;50.140;8.486;2023-04-06T08:45:41;99863.53;;;8.22;41.39
62248;BME280;48237;50.140;8.486;2023-04-06T08:48:09;99866.74;;;6.44;45.96
62248;BME280;48237;50.140;8.486;2023-04-06T08:50:39;99867.19;;;6.38;46.21
62248;BME280;48237;50.140;8.486;2023-04-06T08:53:06;99863.91;;;8.23;42.02
62248;BME280;48237;50.140;8.486;2023-04-06T08:55:34;99865.47;;;8.51;42.92
62248;BME280;48237;50.140;8.486;2023-04-06T08:58:02;99871.47;;;6.06;47.45
62248;BME280;48237;50.140;8.486;2023-04-06T09:00:30;99868.26;;;7.77;45.82
62248;BME280;48237;50.140;8.486;2023-04-06T09:02:58;99867.91;;;8.42;43.93
62248;BME280;48237;50.140;8.486;2023-04-06T09:05:25;99865.54;;;8.57;43.70
62248;BME280;48237;50.140;8.486;2023-04-06T09:07:53;99864.15;;;8.69;42.93
62248;BME280;48237;50.140;8.486;2023-04-06T09:10:20;99869.90;;;7.81;44.94
62248;BME280;48237;50.140;8.486;2023-04-06T09:12:47;99867.40;;;8.14;44.66
62248;BME280;48237;50.140;8.486;2023-04-06T09:15:22;99863.73;;;7.92;44.02
62248;BME280;48237;50.140;8.486;2023-04-06T09:17:49;99865.20;;;8.05;45.36
62248;BME280;48237;50.140;8.486;2023-04-06T09:20:22;99864.28;;;7.41;44.81
62248;BME280;48237;50.140;8.486;2023-04-06T09:22:49;99869.09;;;6.62;47.00
62248;BME280;48237;50.140;8.486;2023-04-06T09:25:19;99867.56;;;5.71;49.97
62248;BME280;48237;50.140;8.486;2023-04-06T09:27:47;99863.16;;;7.32;46.52
62248;BME280;48237;50.140;8.486;2023-04-06T09:30:15;99860.82;;;8.01;45.09
62248;BME280;48237;50.140;8.486;2023-04-06T09:32:47;99852.80;;;8.87;42.32
62248;BME280;48237;50.140;8.486;2023-04-06T09:35:15;99858.18;;;7.28;45.76
62248;BME280;48237;50.140;8.486;2023-04-06T09:37:42;99853.67;;;7.47;45.33
62248;BME280;48237;50.140;8.486;2023-04-06T09:40:10;99850.62;;;7.09;46.15
62248;BME280;48237;50.140;8.486;2023-04-06T09:42:37;99847.03;;;8.33;44.15
62248;BME280;48237;50.140;8.486;2023-04-06T09:45:05;99842.60;;;9.46;42.58
62248;BME280;48237;50.140;8.486;2023-04-06T09:47:33;99840.96;;;9.70;41.46
62248;BME280;48237;50.140;8.486;2023-04-06T09:50:03;99840.77;;;9.90;41.11
62248;BME280;48237;50.140;8.486;2023-04-06T09:52:33;99839.46;;;9.36;42.21
62248;BME280;48237;50.140;8.486;2023-04-06T09:55:03;99841.20;;;10.07;41.12
62248;BME280;48237;50.140;8.486;2023-04-06T09:57:34;99838.87;;;9.10;43.12
62248;BME280;48237;50.140;8.486;2023-04-06T10:00:04;99835.90;;;8.48;42.87
62248;BME280;48237;50.140;8.486;2023-04-06T10:02:39;99836.96;;;10.21;40.72
62248;BME280;48237;50.140;8.486;2023-04-06T10:05:12;99835.01;;;8.71;44.23
62248;BME280;48237;50.140;8.486;2023-04-06T10:07:40;99833.29;;;9.83;42.62
62248;BME280;48237;50.140;8.486;2023-04-06T10:10:10;99835.48;;;9.56;42.61
62248;BME280;48237;50.140;8.486;2023-04-06T10:12:39;99832.88;;;10.04;41.69
62248;BME280;48237;50.140;8.486;2023-04-06T10:15:08;99830.56;;;10.45;40.16
62248;BME280;48237;50.140;8.486;2023-04-06T10:17:35;99824.37;;;10.51;39.15
62248;BME280;48237;50.140;8.486;2023-04-06T10:20:06;99820.81;;;10.87;40.25
62248;BME280;48237;50.140;8.486;2023-04-06T10:22:41;99824.70;;;9.66;41.15
62248;BME280;48237;50.140;8.486;2023-04-06T10:25:10;99821.89;;;10.73;38.80
62248;BME280;48237;50.140;8.486;2023-04-06T10:27:37;99825.73;;;10.19;40.47
62248;BME280;48237;50.140;8.486;2023-04-06T10:30:06;99828.28;;;9.67;40.61
62248;BME280;48237;50.140;8.486;2023-04-06T10:32:34;99810.46;;;11.08;38.49
62248;BME280;48237;50.140;8.486;2023-04-06T10:35:06;99819.28;;;10.38;40.78
62248;BME280;48237;50.140;8.486;2023-04-06T10:37:47;99807.99;;;11.51;39.57
62248;BME280;48237;50.140;8.486;2023-04-06T10:40:30;99812.47;;;10.48;40.27
62248;BME280;48237;50.140;8.486;2023-04-06T10:43:08;99813.74;;;9.95;41.28
62248;BME280;48237;50.140;8.486;2023-04-06T10:45:36;99805.71;;;10.62;40.63
62248;BME280;48237;50.140;8.486;2023-04-06T10:48:13;99809.53;;;10.28;41.32
62248;BME280;48237;50.140;8.486;2023-04-06T10:50:40;99797.47;;;11.39;40.80
62248;BME280;48237;50.140;8.486;2023-04-06T10:53:07;99795.26;;;10.92;41.09
62248;BME280;48237;50.140;8.486;2023-04-06T10:55:34;99793.28;;;11.12;39.69
62248;BME280;48237;50.140;8.486;2023-04-06T10:58:06;99789.87;;;10.92;40.61
62248;BME280;48237;50.140;8.486;2023-04-06T11:00:34;99794.58;;;9.52;44.16
62248;BME280;48237;50.140;8.486;2023-04-06T11:03:01;99787.94;;;10.71;42.24
62248;BME280;48237;50.140;8.486;2023-04-06T11:05:28;99785.11;;;12.16;40.55
62248;BME280;48237;50.140;8.486;2023-04-06T11:07:55;99785.17;;;11.47;41.34
62248;BME280;48237;50.140;8.486;2023-04-06T11:10:23;99782.10;;;11.86;38.83
62248;BME280;48237;50.140;8.486;2023-04-06T11:12:53;99783.73;;;11.06;41.19
62248;BME280;48237;50.140;8.486;2023-04-06T11:15:20;99779.01;;;12.24;39.53
62248;BME280;48237;50.140;8.486;2023-04-06T11:17:47;99777.70;;;12.56;39.59
62248;BME280;48237;50.140;8.486;2023-04-06T11:20:14;99775.85;;;12.17;38.44
62248;BME280;48237;50.140;8.486;2023-04-06T11:22:50;99769.59;;;12.72;38.23
62248;BME280;48237;50.140;8.486;2023-04-06T11:25:18;99767.22;;;12.44;38.14
62248;BME280;48237;50.140;8.486;2023-04-06T11:27:46;99771.05;;;12.56;38.94
62248;BME280;48237;50.140;8.486;2023-04-06T11:30:13;99767.06;;;12.34;39.60
62248;BME280;48237;50.140;8.486;2023-04-06T11:32:42;99763.61;;;12.82;39.08
62248;BME280;48237;50.140;8.486;2023-04-06T11:35:11;99757.28;;;14.08;36.92
62248;BME280;48237;50.140;8.486;2023-04-06T11:37:38;99756.05;;;13.18;36.81
62248;BME280;48237;50.140;8.486;2023-04-06T11:40:08;99750.62;;;13.30;38.06
62248;BME280;48237;50.140;8.486;2023-04-06T11:42:35;99747.98;;;13.81;36.14
62248;BME280;48237;50.140;8.486;2023-04-06T11:45:04;99746.13;;;13.77;36.34
62248;BME280;48237;50.140;8.486;2023-04-06T11:47:35;99746.56;;;13.21;37.62
62248;BME280;48237;50.140;8.486;2023-04-06T11:50:07;99748.83;;;12.08;38.97
62248;BME280;48237;50.140;8.486;2023-04-06T11:52:35;99741.84;;;12.98;38.74
62248;BME280;48237;50.140;8.486;2023-04-06T11:55:11;99743.71;;;13.89;37.78
62248;BME280;48237;50.140;8.486;2023-04-06T11:57:39;99742.06;;;14.06;36.91
62248;BME280;48237;50.140;8.486;2023-04-06T12:00:09;99738.33;;;13.92;36.58
62248;BME280;48237;50.140;8.486;2023-04-06T12:02:36;99738.45;;;13.38;38.31
62248;BME280;48237;50.140;8.486;2023-04-06T12:05:05;99738.71;;;13.59;37.48
62248;BME280;48237;50.140;8.486;2023-04-06T12:07:33;99732.10;;;13.62;36.70
62248;BME280;48237;50.140;8.486;2023-04-06T12:10:01;99729.51;;;13.86;35.91
62248;BME280;48237;50.140;8.486;2023-04-06T12:12:29;99735.02;;;12.98;37.01
62248;BME280;48237;50.140;8.486;2023-04-06T12:14:56;99727.90;;;13.79;37.11
62248;BME280;48237;50.140;8.486;2023-04-06T12:17:24;99726.31;;;13.80;36.81
62248;BME280;48237;50.140;8.486;2023-04-06T12:19:51;99719.66;;;13.90;36.23
62248;BME280;48237;50.140;8.486;2023-04-06T12:22:18;99718.35;;;14.57;35.15
62248;BME280;48237;50.140;8.486;2023-04-06T12:24:46;99709.97;;;14.91;34.99
62248;BME280;48237;50.140;8.486;2023-04-06T12:27:13;99710.25;;;14.95;35.29
62248;BME280;48237;50.140;8.486;2023-04-06T12:29:40;99708.31;;;15.01;34.26
62248;BME280;48237;50.140;8.486;2023-04-06T12:32:07;99715.04;;;14.17;37.39
62248;BME280;48237;50.140;8.486;2023-04-06T12:34:34;99711.94;;;13.02;35.84
62248;BME280;48237;50.140;8.486;2023-04-06T12:37:01;99712.27;;;14.44;36.00
62248;BME280;48237;50.140;8.486;2023-04-06T12:39:29;99707.31;;;14.73;34.04
62248;BME280;48237;50.140;8.486;2023-04-06T12:41:55;99706.51;;;14.21;33.76
62248;BME280;48237;50.140;8.486;2023-04-06T12:44:23;99698.21;;;15.93;31.69
62248;BME280;48237;50.140;8.486;2023-04-06T12:46:50;99704.17;;;13.68;34.39
62248;BME280;48237;50.140;8.486;2023-04-06T12:49:18;99701.52;;;13.49;35.40
62248;BME280;48237;50.140;8.486;2023-04-06T12:51:45;99699.80;;;12.07;34.80
62248;BME280;48237;50.140;8.486;2023-04-06T12:54:12;99695.98;;;12.01;37.16
62248;BME280;48237;50.140;8.486;2023-04-06T12:56:39;99697.37;;;13.97;34.33
62248;BME280;48237;50.140;8.486;2023-04-06T12:59:07;99684.79;;;15.05;33.35
62248;BME280;48237;50.140;8.486;2023-04-06T13:01:34;99691.92;;;13.46;35.80
62248;BME280;48237;50.140;8.486;2023-04-06T13:04:01;99689.07;;;13.57;33.95
62248;BME280;48237;50.140;8.486;2023-04-06T13:06:27;99683.15;;;14.65;33.23
62248;BME280;48237;50.140;8.486;2023-04-06T13:08:54;99686.69;;;14.58;34.28
62248;BME280;48237;50.140;8.486;2023-04-06T13:11:21;99680.36;;;16.07;31.63
62248;BME280;48237;50.140;8.486;2023-04-06T13:13:48;99681.99;;;13.42;33.51
62248;BME280;48237;50.140;8.486;2023-04-06T13:16:16;99674.36;;;15.39;32.26
62248;BME280;48237;50.140;8.486;2023-04-06T13:18:43;99677.10;;;14.59;34.38
62248;BME280;48237;50.140;8.486;2023-04-06T13:21:13;99669.00;;;15.11;32.98
62248;BME280;48237;50.140;8.486;2023-04-06T13:23:41;99667.91;;;15.64;32.59
62248;BME280;48237;50.140;8.486;2023-04-06T13:26:08;99665.94;;;15.78;32.56
62248;BME280;48237;50.140;8.486;2023-04-06T13:28:36;99669.13;;;14.02;34.32
62248;BME280;48237;50.140;8.486;2023-04-06T13:31:04;99658.27;;;15.37;30.92
62248;BME280;48237;50.140;8.486;2023-04-06T13:33:31;99663.48;;;15.78;31.88
62248;BME280;48237;50.140;8.486;2023-04-06T13:35:59;99658.60;;;15.28;32.78
62248;BME280;48237;50.140;8.486;2023-04-06T13:38:27;99653.99;;;15.57;32.06
62248;BME280;48237;50.140;8.486;2023-04-06T13:40:53;99658.98;;;15.65;32.49
62248;BME280;48237;50.140;8.486;2023-04-06T13:43:20;99658.70;;;15.12;32.90
62248;BME280;48237;50.140;8.486;2023-04-06T13:45:50;99655.12;;;14.25;33.55
62248;BME280;48237;50.140;8.486;2023-04-06T13:48:17;99654.29;;;14.13;33.31
62248;BME280;48237;50.140;8.486;2023-04-06T13:50:44;99652.30;;;15.32;31.22
62248;BME280;48237;50.140;8.486;2023-04-06T13:53:12;99655.40;;;14.30;33.37
62248;BME280;48237;50.140;8.486;2023-04-06T13:55:39;99654.54;;;14.55;33.29
62248;BME280;48237;50.140;8.486;2023-04-06T13:58:07;99656.09;;;14.50;33.43
62248;BME280;48237;50.140;8.486;2023-04-06T14:00:34;99650.98;;;15.09;31.34
62248;BME280;48237;50.140;8.486;2023-04-06T14:03:02;99650.47;;;15.04;31.64
62248;BME280;48237;50.140;8.486;2023-04-06T14:05:31;99647.50;;;13.96;32.80
62248;BME280;48237;50.140;8.486;2023-04-06T14:07:58;99650.36;;;14.08;32.93
62248;BME280;48237;50.140;8.486;2023-04-06T14:10:25;99646.51;;;15.06;31.58
62248;BME280;48237;50.140;8.486;2023-04-06T14:12:52;99639.96;;;15.86;30.71
62248;BME280;48237;50.140;8.486;2023-04-06T14:15:19;99639.69;;;16.01;30.53
62248;BME280;48237;50.140;8.486;2023-04-06T14:17:46;99643.30;;;13.47;33.65
62248;BME280;48237;50.140;8.486;2023-04-06T14:20:13;99635.75;;;15.25;32.67
62248;BME280;48237;50.140;8.486;2023-04-06T14:22:40;99638.23;;;13.93;32.16
62248;BME280;48237;50.140;8.486;2023-04-06T14:25:08;99638.15;;;13.53;32.87
62248;BME280;48237;50.140;8.486;2023-04-06T14:27:36;99633.76;;;15.18;31.98
62248;BME280;48237;50.140;8.486;2023-04-06T14:30:03;99635.14;;;14.49;31.84
62248;BME280;48237;50.140;8.486;2023-04-06T14:32:30;99632.86;;;15.34;33.01
62248;BME280;48237;50.140;8.486;2023-04-06T14:34:57;99634.18;;;14.64;32.70
62248;BME280;48237;50.140;8.486;2023-04-06T14:37:25;99632.96;;;14.23;32.07
62248;BME280;48237;50.140;8.486;2023-04-06T14:39:52;99632.92;;;13.57;32.25
62248;BME280;48237;50.140;8.486;2023-04-06T14:42:20;99629.84;;;14.24;32.55